Time;durP1;ratioP1;P1;durP2;ratioP2;P2;SDS_P1;SDS_P2;PMS_P1;PMS_P2;Temp;Humidity;BMP_temperature;BMP_pressure;BME280_temperature;BME280_humidity;BME280_pressure;Samples;Min_cycle;Max_cycle;Signal;HPM_P1;HPM_P2
2022/06/26 00:00:20;;;;;;;8.18;3.15;;;;;;;;;;6128583;23;20174;-49
2022/06/26 00:03:02;;;;;;;7.80;3.10;;;;;;;;;;6128434;23;20253;-48
2022/06/26 00:05:30;;;;;;;7.93;3.25;;;;;;;;;;6126473;23;20597;-47
2022/06/26 00:07:57;;;;;;;5.85;3.60;;;;;;;;;;6126440;23;20182;-47
2022/06/26 00:10:24;;;;;;;4.13;3.45;;;;;;;;;;6126955;23;20174;-49
2022/06/26 00:12:51;;;;;;;7.03;3.00;;;;;;;;;;6127356;23;20189;-46
2022/06/26 00:15:18;;;;;;;6.80;3.05;;;;;;;;;;6126652;23;20237;-47
2022/06/26 00:17:45;;;;;;;7.80;3.80;;;;;;;;;;6126416;23;20485;-49
2022/06/26 00:20:12;;;;;;;8.57;3.40;;;;;;;;;;6101457;23;20178;-47
2022/06/26 00:22:39;;;;;;;4.68;3.15;;;;;;;;;;6103386;23;20174;-46
2022/06/26 00:25:08;;;;;;;9.00;3.53;;;;;;;;;;6128617;23;20170;-44
2022/06/26 00:27:36;;;;;;;7.10;3.80;;;;;;;;;;6128399;23;20525;-52
2022/06/26 00:30:03;;;;;;;5.95;3.67;;;;;;;;;;6128450;23;20472;-50
2022/06/26 00:32:30;;;;;;;7.90;3.40;;;;;;;;;;6128546;23;20265;-50
2022/06/26 00:34:58;;;;;;;8.65;3.78;;;;;;;;;;6128439;23;20185;-47
2022/06/26 00:37:25;;;;;;;3.25;2.95;;;;;;;;;;6103189;23;20213;-47
2022/06/26 00:39:52;;;;;;;7.80;3.00;;;;;;;;;;6103011;23;20233;-52
2022/06/26 00:42:20;;;;;;;7.00;3.10;;;;;;;;;;6128358;23;20221;-47
2022/06/26 00:44:47;;;;;;;9.25;3.00;;;;;;;;;;6128374;23;20174;-49
2022/06/26 00:47:14;;;;;;;5.88;3.13;;;;;;;;;;6129022;23;20170;-46
2022/06/26 00:49:41;;;;;;;6.53;3.10;;;;;;;;;;6128060;23;20217;-48
2022/06/26 00:52:08;;;;;;;4.68;3.08;;;;;;;;;;6128394;23;20182;-47
2022/06/26 00:54:36;;;;;;;3.65;2.50;;;;;;;;;;6128358;23;20189;-47
2022/06/26 00:57:04;;;;;;;6.93;3.35;;;;;;;;;;6103165;23;20202;-46
2022/06/26 00:59:31;;;;;;;9.10;3.38;;;;;;;;;;6102797;23;20174;-46
2022/06/26 01:01:58;;;;;;;5.03;3.60;;;;;;;;;;6128346;23;20197;-44
2022/06/26 01:04:25;;;;;;;7.00;3.50;;;;;;;;;;6102493;23;20475;-44
2022/06/26 01:06:53;;;;;;;4.53;3.50;;;;;;;;;;6128669;23;20178;-44
2022/06/26 01:09:20;;;;;;;9.80;3.40;;;;;;;;;;6127926;23;20174;-45
2022/06/26 01:11:48;;;;;;;7.00;3.53;;;;;;;;;;6103777;23;20181;-44
2022/06/26 01:14:17;;;;;;;5.93;3.35;;;;;;;;;;6103603;23;20174;-48
2022/06/26 01:16:44;;;;;;;7.22;3.20;;;;;;;;;;6127761;23;20306;-44
2022/06/26 01:19:15;;;;;;;4.07;3.50;;;;;;;;;;6103238;23;20174;-45
2022/06/26 01:21:42;;;;;;;6.60;4.15;;;;;;;;;;6128326;23;20175;-44
2022/06/26 01:24:09;;;;;;;10.45;3.72;;;;;;;;;;6127605;23;20174;-46
2022/06/26 01:26:37;;;;;;;14.38;4.40;;;;;;;;;;6128912;23;20189;-47
2022/06/26 01:29:04;;;;;;;12.48;3.60;;;;;;;;;;6129408;23;20185;-44
2022/06/26 01:31:34;;;;;;;7.15;3.03;;;;;;;;;;6129286;23;20174;-45
2022/06/26 01:34:07;;;;;;;7.43;3.00;;;;;;;;;;6104467;23;20185;-45
2022/06/26 01:36:35;;;;;;;9.63;3.55;;;;;;;;;;6104215;23;20190;-44
2022/06/26 01:39:03;;;;;;;15.00;3.80;;;;;;;;;;6103861;23;20174;-47
2022/06/26 01:41:31;;;;;;;10.80;3.20;;;;;;;;;;6104192;23;20252;-45
2022/06/26 01:43:58;;;;;;;9.23;3.53;;;;;;;;;;6129518;23;20188;-44
2022/06/26 01:46:26;;;;;;;13.88;3.95;;;;;;;;;;6129568;23;20189;-45
2022/06/26 01:48:54;;;;;;;6.90;3.70;;;;;;;;;;6103766;23;20202;-44
2022/06/26 01:51:21;;;;;;;11.43;3.65;;;;;;;;;;6129439;23;20649;-44
2022/06/26 01:53:50;;;;;;;7.90;3.67;;;;;;;;;;6104026;23;20178;-46
2022/06/26 01:56:18;;;;;;;15.45;3.80;;;;;;;;;;6128265;23;20229;-44
2022/06/26 01:58:47;;;;;;;9.13;3.80;;;;;;;;;;6129541;23;20468;-45
2022/06/26 02:01:19;;;;;;;8.52;4.20;;;;;;;;;;6104066;23;20177;-47
2022/06/26 02:03:46;;;;;;;12.45;3.70;;;;;;;;;;6103918;23;20206;-45
2022/06/26 02:06:13;;;;;;;7.55;3.85;;;;;;;;;;6129276;23;20178;-49
2022/06/26 02:08:41;;;;;;;14.82;4.03;;;;;;;;;;6103584;23;20526;-45
2022/06/26 02:13:57;;;;;;;13.35;4.05;;;;;;;;;;6104005;23;20162;-48
2022/06/26 02:16:27;;;;;;;13.07;4.13;;;;;;;;;;6103979;23;20186;-48
2022/06/26 02:18:57;;;;;;;15.75;4.10;;;;;;;;;;6103473;23;20173;-45
2022/06/26 02:21:27;;;;;;;10.13;4.07;;;;;;;;;;6128881;23;20194;-49
2022/06/26 02:23:57;;;;;;;17.30;4.15;;;;;;;;;;6103852;23;20188;-44
2022/06/26 02:26:24;;;;;;;8.90;3.85;;;;;;;;;;6103639;23;20178;-46
2022/06/26 02:28:54;;;;;;;14.32;4.15;;;;;;;;;;6103827;23;20166;-44
2022/06/26 02:31:23;;;;;;;14.85;3.80;;;;;;;;;;6129210;23;20174;-44
2022/06/26 02:33:50;;;;;;;16.88;4.20;;;;;;;;;;6104051;23;20459;-47
2022/06/26 02:36:17;;;;;;;9.75;4.15;;;;;;;;;;6129206;23;20537;-48
2022/06/26 02:38:44;;;;;;;16.60;5.00;;;;;;;;;;6103172;23;20174;-46
2022/06/26 02:41:11;;;;;;;12.07;4.72;;;;;;;;;;6129221;23;20237;-44
2022/06/26 02:43:38;;;;;;;19.00;4.50;;;;;;;;;;6104541;23;20644;-48
2022/06/26 02:46:07;;;;;;;13.00;5.05;;;;;;;;;;6103781;23;20185;-47
2022/06/26 02:48:35;;;;;;;15.25;4.70;;;;;;;;;;6103544;23;20202;-46
2022/06/26 02:51:04;;;;;;;17.77;4.85;;;;;;;;;;6103761;23;20184;-50
2022/06/26 02:53:32;;;;;;;12.60;4.88;;;;;;;;;;6103715;23;20287;-50
2022/06/26 02:55:59;;;;;;;15.07;4.72;;;;;;;;;;6129106;23;20182;-44
2022/06/26 02:58:26;;;;;;;9.82;4.38;;;;;;;;;;6129671;23;20201;-44
2022/06/26 03:00:56;;;;;;;14.75;5.00;;;;;;;;;;6103762;23;20162;-44
2022/06/26 03:03:24;;;;;;;13.35;4.95;;;;;;;;;;6129054;23;20237;-49
2022/06/26 03:05:52;;;;;;;12.40;4.90;;;;;;;;;;6103577;23;20189;-45
2022/06/26 03:08:23;;;;;;;13.15;5.13;;;;;;;;;;6103712;23;20166;-44
2022/06/26 03:10:50;;;;;;;16.77;5.65;;;;;;;;;;6103450;23;20185;-44
2022/06/26 03:13:18;;;;;;;8.55;5.53;;;;;;;;;;6103201;23;20590;-50
2022/06/26 03:15:45;;;;;;;9.85;5.25;;;;;;;;;;6103592;23;20174;-44
2022/06/26 03:18:15;;;;;;;10.15;5.57;;;;;;;;;;6103616;23;20193;-44
2022/06/26 03:20:43;;;;;;;10.88;5.60;;;;;;;;;;6103523;23;20174;-46
2022/06/26 03:23:11;;;;;;;8.45;5.90;;;;;;;;;;6128919;23;20185;-46
2022/06/26 03:25:38;;;;;;;9.32;5.30;;;;;;;;;;6103136;23;20170;-50
2022/06/26 03:28:05;;;;;;;12.63;5.80;;;;;;;;;;6103432;23;20193;-46
2022/06/26 03:30:39;;;;;;;13.73;5.60;;;;;;;;;;6103593;23;20174;-48
2022/06/26 03:33:07;;;;;;;19.25;6.07;;;;;;;;;;6103358;23;20597;-44
2022/06/26 03:35:35;;;;;;;9.73;6.03;;;;;;;;;;6103219;23;20185;-44
2022/06/26 03:38:03;;;;;;;11.75;5.32;;;;;;;;;;6103163;23;20198;-45
2022/06/26 03:40:32;;;;;;;12.82;6.15;;;;;;;;;;6103081;23;20621;-46
2022/06/26 03:43:00;;;;;;;11.30;6.03;;;;;;;;;;6102922;23;20178;-46
2022/06/26 03:45:39;;;;;;;7.90;5.45;;;;;;;;;;6103520;23;20162;-47
2022/06/26 03:48:07;;;;;;;9.90;6.43;;;;;;;;;;6102676;23;20277;-46
2022/06/26 03:50:33;;;;;;;9.05;6.25;;;;;;;;;;6103106;23;20172;-47
2022/06/26 03:53:02;;;;;;;8.18;5.43;;;;;;;;;;6128238;23;20192;-47
2022/06/26 03:55:29;;;;;;;9.70;5.60;;;;;;;;;;6103279;23;20189;-48
2022/06/26 03:57:56;;;;;;;7.30;5.75;;;;;;;;;;6128610;23;20198;-47
2022/06/26 04:00:25;;;;;;;8.98;6.15;;;;;;;;;;6102458;23;20180;-45
2022/06/26 04:02:53;;;;;;;9.65;6.05;;;;;;;;;;6102368;23;20174;-46
2022/06/26 04:05:24;;;;;;;7.80;5.80;;;;;;;;;;6102452;23;20604;-46
2022/06/26 04:07:56;;;;;;;9.30;5.78;;;;;;;;;;6136704;23;20455;-46
2022/06/26 04:10:29;;;;;;;8.20;5.78;;;;;;;;;;6102594;23;20162;-46
2022/06/26 04:12:59;;;;;;;8.35;5.03;;;;;;;;;;6102347;23;20174;-47
2022/06/26 04:15:28;;;;;;;9.88;5.53;;;;;;;;;;6103095;23;20177;-45
2022/06/26 04:17:55;;;;;;;8.13;5.32;;;;;;;;;;6102533;23;20217;-48
2022/06/26 04:20:23;;;;;;;9.65;5.20;;;;;;;;;;6123239;23;20194;-49
2022/06/26 04:23:08;;;;;;;8.88;5.10;;;;;;;;;;6102155;23;20205;-51
2022/06/26 04:25:39;;;;;;;6.78;5.00;;;;;;;;;;6104769;23;20629;-50
2022/06/26 04:28:07;;;;;;;9.68;4.95;;;;;;;;;;6101925;23;20197;-50
2022/06/26 04:30:40;;;;;;;10.18;4.72;;;;;;;;;;6101705;23;20200;-47
2022/06/26 04:33:08;;;;;;;11.50;4.90;;;;;;;;;;6101777;23;20533;-49
2022/06/26 04:35:36;;;;;;;5.57;4.40;;;;;;;;;;6101159;23;20205;-48
2022/06/26 04:38:03;;;;;;;13.35;5.07;;;;;;;;;;6101888;23;20214;-50
2022/06/26 04:40:30;;;;;;;8.43;5.13;;;;;;;;;;6101564;23;20224;-49
2022/06/26 04:42:58;;;;;;;7.90;4.80;;;;;;;;;;6101992;23;20198;-46
2022/06/26 04:45:25;;;;;;;6.75;4.93;;;;;;;;;;6102259;23;20205;-49
2022/06/26 04:47:56;;;;;;;8.45;4.93;;;;;;;;;;6101592;23;20204;-46
2022/06/26 04:50:23;;;;;;;7.78;4.57;;;;;;;;;;6101605;23;20202;-51
2022/06/26 04:52:52;;;;;;;6.72;4.43;;;;;;;;;;6101830;23;20205;-47
2022/06/26 04:55:25;;;;;;;5.40;4.38;;;;;;;;;;6102042;23;20208;-48
2022/06/26 04:57:51;;;;;;;5.18;4.20;;;;;;;;;;6101474;23;20217;-47
2022/06/26 05:00:19;;;;;;;5.30;4.32;;;;;;;;;;6127583;23;20198;-50
2022/06/26 05:03:04;;;;;;;10.90;3.78;;;;;;;;;;6103067;23;20194;-46
2022/06/26 05:05:55;;;;;;;4.93;3.63;;;;;;;;;;6103076;23;20630;-50
2022/06/26 05:08:44;;;;;;;9.73;4.10;;;;;;;;;;6108926;23;20206;-51
2022/06/26 05:11:12;;;;;;;8.13;3.70;;;;;;;;;;6103507;23;20201;-47
2022/06/26 05:13:40;;;;;;;6.45;3.85;;;;;;;;;;6129067;23;20194;-50
2022/06/26 05:16:34;;;;;;;6.97;3.83;;;;;;;;;;6128675;23;20197;-50
2022/06/26 05:19:02;;;;;;;6.47;3.63;;;;;;;;;;6103314;23;20206;-48
2022/06/26 05:21:30;;;;;;;11.75;3.67;;;;;;;;;;6102730;23;20229;-48
2022/06/26 05:23:58;;;;;;;5.95;3.42;;;;;;;;;;6103568;23;20194;-46
2022/06/26 05:26:27;;;;;;;4.60;2.90;;;;;;;;;;6103767;23;20198;-48
2022/06/26 05:28:54;;;;;;;12.20;3.88;;;;;;;;;;6103234;23;20212;-48
2022/06/26 05:31:22;;;;;;;5.53;3.38;;;;;;;;;;6103644;23;20201;-49
2022/06/26 05:33:49;;;;;;;4.47;3.25;;;;;;;;;;6103355;23;20498;-49
2022/06/26 05:36:16;;;;;;;5.40;3.05;;;;;;;;;;6102908;23;20194;-49
2022/06/26 05:38:43;;;;;;;7.78;3.25;;;;;;;;;;6103247;23;20209;-49
2022/06/26 05:41:11;;;;;;;9.05;3.70;;;;;;;;;;6102912;23;20507;-48
2022/06/26 05:43:38;;;;;;;4.32;3.00;;;;;;;;;;6103110;23;20205;-50
2022/06/26 05:46:10;;;;;;;6.32;3.00;;;;;;;;;;6103395;23;20194;-50
2022/06/26 05:49:00;;;;;;;5.50;2.95;;;;;;;;;;6115386;23;20210;-50
2022/06/26 05:51:36;;;;;;;4.32;3.00;;;;;;;;;;6103163;23;20485;-50
2022/06/26 05:54:13;;;;;;;7.43;2.85;;;;;;;;;;6102538;23;20201;-51
2022/06/26 05:57:04;;;;;;;4.40;2.80;;;;;;;;;;6120222;23;20202;-49
2022/06/26 05:59:54;;;;;;;2.58;2.25;;;;;;;;;;6087330;23;20538;-48
2022/06/26 06:02:40;;;;;;;3.65;2.63;;;;;;;;;;6128230;23;20264;-50
2022/06/26 06:05:08;;;;;;;6.47;2.47;;;;;;;;;;6102763;23;20207;-46
2022/06/26 06:07:36;;;;;;;6.40;2.92;;;;;;;;;;6103313;23;20632;-46
2022/06/26 06:10:05;;;;;;;4.82;2.50;;;;;;;;;;6102631;23;20198;-49
2022/06/26 06:12:33;;;;;;;4.03;2.47;;;;;;;;;;6128348;23;20209;-47
2022/06/26 06:15:01;;;;;;;5.10;2.78;;;;;;;;;;6128215;23;20194;-50
2022/06/26 06:17:35;;;;;;;6.72;3.03;;;;;;;;;;6103281;23;20277;-51
2022/06/26 06:20:06;;;;;;;5.55;2.65;;;;;;;;;;6102238;23;20269;-48
2022/06/26 06:22:49;;;;;;;7.38;2.30;;;;;;;;;;6101827;23;20202;-50
2022/06/26 06:25:16;;;;;;;7.45;2.53;;;;;;;;;;6101250;23;20272;-51
2022/06/26 06:27:44;;;;;;;5.93;3.08;;;;;;;;;;6127346;23;20198;-48
2022/06/26 06:30:16;;;;;;;4.78;2.58;;;;;;;;;;6101526;23;20198;-49
2022/06/26 06:32:43;;;;;;;4.55;2.50;;;;;;;;;;6101819;23;20198;-46
2022/06/26 06:35:20;;;;;;;5.07;2.17;;;;;;;;;;6100570;23;20205;-52
2022/06/26 06:37:48;;;;;;;3.28;2.33;;;;;;;;;;6127224;23;20245;-53
2022/06/26 06:40:15;;;;;;;4.15;2.35;;;;;;;;;;6101086;23;20511;-53
2022/06/26 06:42:43;;;;;;;6.78;2.42;;;;;;;;;;6101412;23;20197;-50
2022/06/26 06:45:13;;;;;;;6.55;2.30;;;;;;;;;;6100394;23;20213;-48
2022/06/26 06:48:01;;;;;;;4.72;2.55;;;;;;;;;;6101019;23;20553;-53
2022/06/26 06:50:37;;;;;;;3.50;2.47;;;;;;;;;;6126257;23;20198;-51
2022/06/26 06:53:06;;;;;;;4.25;2.42;;;;;;;;;;6125755;23;20290;-51
2022/06/26 06:55:33;;;;;;;3.20;2.40;;;;;;;;;;6101161;23;20265;-49
2022/06/26 06:58:00;;;;;;;4.97;2.58;;;;;;;;;;6101168;23;20202;-50
2022/06/26 07:00:27;;;;;;;7.72;2.72;;;;;;;;;;6099383;23;20209;-53
2022/06/26 07:03:00;;;;;;;3.15;2.25;;;;;;;;;;6100580;23;20201;-54
2022/06/26 07:05:28;;;;;;;5.22;2.38;;;;;;;;;;6125679;23;20205;-55
2022/06/26 07:07:55;;;;;;;2.92;1.90;;;;;;;;;;6127663;23;20194;-55
2022/06/26 07:10:23;;;;;;;4.28;2.17;;;;;;;;;;6101638;23;20198;-55
2022/06/26 07:12:55;;;;;;;4.45;1.98;;;;;;;;;;6102304;23;20337;-51
2022/06/26 07:15:22;;;;;;;6.22;2.78;;;;;;;;;;6127094;23;20692;-55
2022/06/26 07:17:49;;;;;;;3.53;2.42;;;;;;;;;;6127705;23;20212;-54
2022/06/26 07:20:17;;;;;;;3.63;2.08;;;;;;;;;;6126135;23;20213;-55
2022/06/26 07:22:46;;;;;;;5.50;2.15;;;;;;;;;;6101970;23;20202;-56
2022/06/26 07:25:44;;;;;;;4.70;2.00;;;;;;;;;;6101792;23;20208;-56
2022/06/26 07:28:13;;;;;;;4.53;2.30;;;;;;;;;;6101947;23;20206;-56
2022/06/26 07:30:39;;;;;;;6.30;2.00;;;;;;;;;;6101453;23;20198;-54
2022/06/26 07:35:56;;;;;;;6.20;2.22;;;;;;;;;;6101975;23;20198;-56
2022/06/26 07:38:29;;;;;;;4.43;2.10;;;;;;;;;;6102020;23;20217;-56
2022/06/26 07:40:56;;;;;;;2.55;1.98;;;;;;;;;;6101627;23;20252;-55
2022/06/26 07:43:23;;;;;;;2.75;2.25;;;;;;;;;;6102227;23;20268;-55
2022/06/26 07:45:51;;;;;;;2.70;2.20;;;;;;;;;;6101900;23;20204;-56
2022/06/26 07:48:20;;;;;;;3.63;2.33;;;;;;;;;;6101546;23;20280;-55
2022/06/26 07:50:49;;;;;;;2.50;2.00;;;;;;;;;;6101406;23;20543;-55
2022/06/26 07:53:16;;;;;;;6.90;2.45;;;;;;;;;;6127593;23;20206;-55
2022/06/26 07:55:43;;;;;;;4.00;2.67;;;;;;;;;;6127632;23;20194;-55
2022/06/26 07:58:10;;;;;;;3.95;2.40;;;;;;;;;;6126900;23;20632;-54
2022/06/26 08:00:37;;;;;;;4.63;2.55;;;;;;;;;;6127299;23;20208;-55
2022/06/26 08:03:06;;;;;;;3.85;2.10;;;;;;;;;;6126525;23;20197;-55
2022/06/26 08:05:33;;;;;;;3.33;2.50;;;;;;;;;;6127581;23;20194;-54
2022/06/26 08:08:00;;;;;;;3.60;2.40;;;;;;;;;;6126966;23;20209;-55
2022/06/26 08:10:34;;;;;;;2.53;2.10;;;;;;;;;;6127218;23;20664;-55
2022/06/26 08:13:03;;;;;;;6.03;2.00;;;;;;;;;;6126878;23;20625;-56
2022/06/26 08:15:30;;;;;;;4.20;2.20;;;;;;;;;;6127181;23;20217;-56
2022/06/26 08:17:57;;;;;;;4.57;2.63;;;;;;;;;;6126381;23;20625;-56
2022/06/26 08:20:25;;;;;;;6.68;2.53;;;;;;;;;;6127082;23;20189;-53
2022/06/26 08:22:52;;;;;;;3.33;1.98;;;;;;;;;;6120691;23;20493;-54
2022/06/26 08:25:19;;;;;;;8.80;2.25;;;;;;;;;;6126526;23;20281;-52
2022/06/26 08:27:46;;;;;;;3.42;2.30;;;;;;;;;;6125487;23;20197;-54
2022/06/26 08:30:14;;;;;;;3.53;1.90;;;;;;;;;;6126060;23;20197;-52
2022/06/26 08:32:42;;;;;;;6.38;2.35;;;;;;;;;;6125259;23;20208;-54
2022/06/26 08:35:10;;;;;;;2.30;1.88;;;;;;;;;;6126201;23;20209;-52
2022/06/26 08:37:37;;;;;;;6.05;2.42;;;;;;;;;;6126297;23;20204;-50
2022/06/26 08:40:06;;;;;;;7.20;2.15;;;;;;;;;;6126468;23;20652;-49
2022/06/26 08:42:38;;;;;;;3.08;2.22;;;;;;;;;;6100652;23;20923;-60
2022/06/26 08:45:06;;;;;;;2.72;2.17;;;;;;;;;;6127593;23;20665;-51
2022/06/26 08:47:39;;;;;;;2.30;2.10;;;;;;;;;;6125598;23;20194;-51
2022/06/26 08:50:08;;;;;;;3.10;2.20;;;;;;;;;;6127073;23;20237;-62
2022/06/26 08:52:35;;;;;;;4.22;2.42;;;;;;;;;;6125980;23;20688;-48
2022/06/26 08:55:04;;;;;;;2.85;2.33;;;;;;;;;;6101842;23;20197;-49
2022/06/26 08:57:33;;;;;;;4.63;2.25;;;;;;;;;;6126577;23;20553;-53
2022/06/26 09:00:01;;;;;;;4.05;2.03;;;;;;;;;;6101525;23;20214;-51
2022/06/26 09:02:28;;;;;;;4.55;1.90;;;;;;;;;;6125614;23;20474;-54
2022/06/26 09:04:56;;;;;;;6.22;2.35;;;;;;;;;;6125998;23;20205;-50
2022/06/26 09:07:24;;;;;;;3.92;1.90;;;;;;;;;;6126100;23;20205;-50
2022/06/26 09:09:51;;;;;;;2.50;2.20;;;;;;;;;;6100621;23;20206;-54
2022/06/26 09:12:18;;;;;;;3.08;2.28;;;;;;;;;;6127529;23;20214;-53
2022/06/26 09:14:51;;;;;;;2.78;2.00;;;;;;;;;;6102290;23;20209;-54
2022/06/26 09:17:22;;;;;;;4.55;2.40;;;;;;;;;;6127249;23;20197;-54
2022/06/26 09:19:51;;;;;;;3.47;2.28;;;;;;;;;;6129226;23;20214;-58
2022/06/26 09:22:18;;;;;;;4.70;2.15;;;;;;;;;;6127249;23;20675;-54
2022/06/26 09:24:54;;;;;;;7.63;2.60;;;;;;;;;;6127606;23;20194;-58
2022/06/26 09:27:21;;;;;;;3.95;2.78;;;;;;;;;;6128972;23;20194;-57
2022/06/26 09:29:50;;;;;;;4.18;2.40;;;;;;;;;;6128307;23;20527;-48
2022/06/26 09:32:21;;;;;;;5.43;2.22;;;;;;;;;;6127949;23;20487;-51
2022/06/26 09:34:53;;;;;;;4.38;2.28;;;;;;;;;;6128694;23;20502;-52
2022/06/26 09:37:21;;;;;;;5.32;2.50;;;;;;;;;;6128972;23;20205;-51
2022/06/26 09:40:13;;;;;;;2.67;2.08;;;;;;;;;;6128198;23;20209;-49
2022/06/26 09:42:40;;;;;;;4.65;3.03;;;;;;;;;;6131451;23;20264;-52
2022/06/26 09:45:10;;;;;;;3.33;2.47;;;;;;;;;;6128102;23;20198;-50
2022/06/26 09:47:39;;;;;;;6.25;2.33;;;;;;;;;;6128369;23;20198;-51
2022/06/26 09:50:08;;;;;;;4.75;2.90;;;;;;;;;;6102983;23;20214;-49
2022/06/26 09:52:35;;;;;;;5.57;2.50;;;;;;;;;;6128588;23;20281;-50
2022/06/26 09:55:05;;;;;;;2.67;2.30;;;;;;;;;;6128315;23;20216;-48
2022/06/26 09:57:32;;;;;;;3.50;1.98;;;;;;;;;;6128400;23;20208;-48
2022/06/26 10:00:00;;;;;;;3.00;2.13;;;;;;;;;;6128127;23;20217;-50
2022/06/26 10:08:13;;;;;;;2.70;2.30;;;;;;;;;;6128519;23;20194;-49
2022/06/26 10:10:41;;;;;;;3.15;2.47;;;;;;;;;;6128009;23;20195;-49
2022/06/26 10:13:09;;;;;;;3.30;2.47;;;;;;;;;;6103155;23;20198;-50
2022/06/26 10:16:14;;;;;;;3.80;2.55;;;;;;;;;;6102640;23;20213;-49
2022/06/26 10:19:05;;;;;;;4.85;2.42;;;;;;;;;;6123395;23;20198;-49
2022/06/26 10:21:39;;;;;;;5.07;2.35;;;;;;;;;;6127762;23;20201;-49
2022/06/26 10:24:06;;;;;;;4.45;2.67;;;;;;;;;;6128258;23;20209;-49
2022/06/26 10:26:35;;;;;;;3.83;2.63;;;;;;;;;;6126279;23;20198;-50
2022/06/26 10:29:07;;;;;;;6.47;2.80;;;;;;;;;;6126755;23;20264;-50
2022/06/26 10:31:53;;;;;;;6.15;2.50;;;;;;;;;;6124516;23;20699;-45
2022/06/26 10:34:22;;;;;;;6.05;2.85;;;;;;;;;;6124644;23;20205;-48
2022/06/26 10:37:07;;;;;;;3.58;2.35;;;;;;;;;;6124464;23;20194;-52
2022/06/26 10:39:45;;;;;;;5.13;2.60;;;;;;;;;;6129313;23;20206;-46
2022/06/26 10:45:06;;;;;;;2.88;2.50;;;;;;;;;;6126816;23;20194;-45
2022/06/26 10:47:44;;;;;;;5.40;2.53;;;;;;;;;;6126174;23;20268;-45
2022/06/26 10:50:27;;;;;;;5.03;2.40;;;;;;;;;;6126883;23;20217;-48
2022/06/26 10:53:10;;;;;;;2.65;2.40;;;;;;;;;;6126276;23;20204;-46
2022/06/26 10:55:38;;;;;;;6.10;2.58;;;;;;;;;;6128135;23;20194;-48
2022/06/26 10:58:05;;;;;;;11.45;3.95;;;;;;;;;;6125555;23;20194;-46
2022/06/26 11:00:32;;;;;;;6.30;2.75;;;;;;;;;;6127986;23;20209;-46
2022/06/26 11:03:00;;;;;;;5.70;2.30;;;;;;;;;;6126774;23;20194;-46
2022/06/26 11:05:28;;;;;;;4.40;2.35;;;;;;;;;;6128062;23;20244;-47
2022/06/26 11:07:55;;;;;;;4.97;2.38;;;;;;;;;;6127275;23;20202;-45
2022/06/26 11:10:27;;;;;;;4.18;2.72;;;;;;;;;;6127875;23;20198;-48
2022/06/26 11:12:54;;;;;;;3.92;2.30;;;;;;;;;;6127614;23;20256;-47
2022/06/26 11:15:34;;;;;;;4.32;2.38;;;;;;;;;;6127536;23;20645;-49
2022/06/26 11:18:06;;;;;;;4.20;2.63;;;;;;;;;;6127164;23;20253;-46
2022/06/26 11:20:47;;;;;;;5.43;2.83;;;;;;;;;;6127560;23;20207;-48
2022/06/26 11:23:24;;;;;;;7.53;2.60;;;;;;;;;;6127295;23;20193;-49
2022/06/26 11:25:58;;;;;;;5.40;2.80;;;;;;;;;;6128218;23;20193;-48
2022/06/26 11:28:32;;;;;;;3.13;2.60;;;;;;;;;;6127428;23;20633;-46
2022/06/26 11:31:02;;;;;;;4.75;2.50;;;;;;;;;;6102338;23;20193;-46
2022/06/26 11:33:32;;;;;;;2.30;2.08;;;;;;;;;;6127619;23;20194;-49
2022/06/26 11:36:05;;;;;;;3.40;2.15;;;;;;;;;;6127378;23;20220;-46
2022/06/26 11:38:33;;;;;;;3.72;2.60;;;;;;;;;;6127509;23;20205;-49
2022/06/26 11:41:03;;;;;;;2.53;2.05;;;;;;;;;;6126332;23;20210;-51
2022/06/26 11:43:31;;;;;;;16.65;4.30;;;;;;;;;;6125893;23;20659;-48
2022/06/26 11:46:01;;;;;;;31.25;6.47;;;;;;;;;;6126554;23;20223;-47
2022/06/26 11:48:29;;;;;;;5.63;2.65;;;;;;;;;;6127049;23;20269;-47
2022/06/26 11:50:57;;;;;;;6.68;3.15;;;;;;;;;;6127849;23;20201;-45
2022/06/26 11:53:29;;;;;;;3.70;2.60;;;;;;;;;;6128510;23;20181;-47
2022/06/26 11:55:58;;;;;;;5.05;2.30;;;;;;;;;;6128418;23;20358;-49
2022/06/26 11:58:28;;;;;;;4.78;2.40;;;;;;;;;;6128245;23;20474;-47
2022/06/26 12:01:09;;;;;;;4.78;2.45;;;;;;;;;;6128734;23;20205;-49
2022/06/26 12:03:48;;;;;;;3.60;2.28;;;;;;;;;;6128250;23;20162;-47
2022/06/26 12:06:31;;;;;;;3.20;2.42;;;;;;;;;;6103547;23;20162;-49
2022/06/26 12:09:21;;;;;;;6.00;2.70;;;;;;;;;;6128785;23;20170;-49
2022/06/26 12:11:51;;;;;;;2.92;2.10;;;;;;;;;;6128509;23;20158;-48
2022/06/26 12:14:20;;;;;;;7.00;2.30;;;;;;;;;;6128158;23;20174;-51
2022/06/26 12:16:49;;;;;;;5.05;2.30;;;;;;;;;;6128072;23;20486;-49
2022/06/26 12:19:16;;;;;;;5.47;2.20;;;;;;;;;;6128079;23;20274;-47
2022/06/26 12:21:52;;;;;;;6.32;2.28;;;;;;;;;;6128033;23;20181;-47
2022/06/26 12:24:19;;;;;;;4.63;2.50;;;;;;;;;;6128147;23;20168;-50
2022/06/26 12:26:47;;;;;;;4.53;2.22;;;;;;;;;;6128413;23;20174;-45
2022/06/26 12:29:16;;;;;;;6.65;2.67;;;;;;;;;;6128096;23;20174;-46
2022/06/26 12:31:51;;;;;;;2.65;2.10;;;;;;;;;;6128791;23;20169;-46
2022/06/26 12:34:18;;;;;;;3.05;2.20;;;;;;;;;;6128431;23;20170;-51
2022/06/26 12:36:45;;;;;;;4.82;2.60;;;;;;;;;;6128372;23;20180;-49
2022/06/26 12:39:14;;;;;;;10.02;2.33;;;;;;;;;;6127904;23;20210;-51
2022/06/26 12:42:02;;;;;;;4.60;2.30;;;;;;;;;;6128120;23;20642;-52
2022/06/26 12:44:29;;;;;;;3.90;2.03;;;;;;;;;;6128305;23;20178;-47
2022/06/26 12:46:56;;;;;;;3.72;2.55;;;;;;;;;;6128443;23;20210;-50
2022/06/26 12:49:23;;;;;;;4.65;2.38;;;;;;;;;;6128359;23;20280;-51
2022/06/26 12:51:52;;;;;;;4.22;2.05;;;;;;;;;;6127855;23;20174;-50
2022/06/26 12:54:19;;;;;;;3.42;2.10;;;;;;;;;;6127938;23;20170;-49
2022/06/26 12:56:46;;;;;;;2.50;2.28;;;;;;;;;;6128515;23;20197;-50
2022/06/26 12:59:13;;;;;;;2.97;2.13;;;;;;;;;;6127882;23;20469;-46
2022/06/26 13:01:40;;;;;;;4.30;2.55;;;;;;;;;;6128475;23;20181;-49
2022/06/26 13:04:07;;;;;;;3.30;2.35;;;;;;;;;;6128263;23;20174;-46
2022/06/26 13:06:34;;;;;;;4.90;2.42;;;;;;;;;;6129103;23;20246;-50
2022/06/26 13:09:01;;;;;;;2.97;2.38;;;;;;;;;;6128294;23;20252;-48
2022/06/26 13:11:29;;;;;;;2.55;2.33;;;;;;;;;;6128231;23;20181;-49
2022/06/26 13:13:57;;;;;;;3.30;2.22;;;;;;;;;;6127855;23;20593;-48
2022/06/26 13:16:40;;;;;;;8.27;2.25;;;;;;;;;;6127798;23;20162;-48
2022/06/26 13:19:08;;;;;;;3.42;2.20;;;;;;;;;;6128122;23;20174;-48
2022/06/26 13:21:36;;;;;;;3.00;2.08;;;;;;;;;;6128612;23;20241;-49
2022/06/26 13:24:05;;;;;;;3.05;2.38;;;;;;;;;;6129642;23;20181;-49
2022/06/26 13:26:38;;;;;;;3.10;2.50;;;;;;;;;;6129664;23;20628;-47
2022/06/26 13:29:06;;;;;;;4.22;2.20;;;;;;;;;;6129952;23;20254;-49
2022/06/26 13:31:33;;;;;;;2.88;2.30;;;;;;;;;;6129545;23;20186;-48
2022/06/26 13:34:01;;;;;;;4.07;2.10;;;;;;;;;;6129594;23;20233;-48
2022/06/26 13:36:27;;;;;;;2.95;2.50;;;;;;;;;;6130059;23;20174;-48
2022/06/26 13:38:54;;;;;;;2.60;2.05;;;;;;;;;;6129947;23;20198;-47
2022/06/26 13:41:22;;;;;;;4.70;2.47;;;;;;;;;;6129329;23;20468;-46
2022/06/26 13:43:49;;;;;;;3.90;2.28;;;;;;;;;;6129841;23;20194;-49
2022/06/26 13:46:16;;;;;;;4.25;2.25;;;;;;;;;;6129740;23;20180;-48
2022/06/26 13:48:43;;;;;;;2.50;2.30;;;;;;;;;;6129196;23;20645;-46
2022/06/26 13:51:10;;;;;;;2.63;2.40;;;;;;;;;;6129399;23;20178;-51
2022/06/26 13:53:37;;;;;;;3.80;2.30;;;;;;;;;;6129426;23;20174;-45
2022/06/26 13:56:04;;;;;;;5.55;2.58;;;;;;;;;;6129348;23;20582;-49
2022/06/26 13:58:31;;;;;;;3.17;2.40;;;;;;;;;;6129386;23;20181;-51
2022/06/26 14:00:58;;;;;;;4.90;2.25;;;;;;;;;;6104042;23;20194;-49
2022/06/26 14:03:25;;;;;;;3.72;2.35;;;;;;;;;;6129614;23;20185;-50
2022/06/26 14:05:54;;;;;;;3.65;2.38;;;;;;;;;;6129596;23;20192;-46
2022/06/26 14:08:22;;;;;;;2.83;2.38;;;;;;;;;;6129814;23;20173;-50
2022/06/26 14:10:49;;;;;;;3.17;2.42;;;;;;;;;;6129835;23;20174;-52
2022/06/26 14:13:16;;;;;;;4.95;2.55;;;;;;;;;;6129654;23;20185;-48
2022/06/26 14:15:43;;;;;;;3.20;2.42;;;;;;;;;;6129198;23;20174;-49
2022/06/26 14:18:11;;;;;;;2.72;2.45;;;;;;;;;;6129166;23;20617;-50
2022/06/26 14:20:38;;;;;;;5.13;2.65;;;;;;;;;;6129466;23;20232;-48
2022/06/26 14:26:02;;;;;;;3.08;1.95;;;;;;;;;;6129829;23;20162;-48
2022/06/26 14:28:34;;;;;;;3.45;2.20;;;;;;;;;;6129479;23;20176;-49
2022/06/26 14:31:06;;;;;;;4.22;2.67;;;;;;;;;;6129628;23;20430;-50
2022/06/26 14:33:34;;;;;;;3.58;2.58;;;;;;;;;;6129392;23;20170;-49
2022/06/26 14:36:03;;;;;;;3.67;2.40;;;;;;;;;;6128871;23;20174;-50
2022/06/26 14:38:31;;;;;;;2.42;2.20;;;;;;;;;;6129369;23;20178;-47
2022/06/26 14:41:03;;;;;;;2.78;2.20;;;;;;;;;;6129257;23;20217;-52
2022/06/26 14:43:30;;;;;;;4.80;2.10;;;;;;;;;;6129201;23;20456;-51
2022/06/26 14:45:58;;;;;;;4.85;2.70;;;;;;;;;;6129283;23;20170;-46
2022/06/26 14:48:25;;;;;;;3.08;2.35;;;;;;;;;;6128823;23;20264;-50
2022/06/26 14:50:52;;;;;;;4.28;2.30;;;;;;;;;;6130024;23;20229;-49
2022/06/26 14:53:23;;;;;;;4.25;2.03;;;;;;;;;;6128726;23;20170;-50
2022/06/26 14:55:51;;;;;;;3.40;2.17;;;;;;;;;;6129268;23;20162;-48
2022/06/26 14:58:22;;;;;;;3.78;2.25;;;;;;;;;;6129090;23;20174;-50
2022/06/26 15:00:50;;;;;;;2.45;2.25;;;;;;;;;;6129066;23;20185;-50
2022/06/26 15:03:17;;;;;;;7.88;2.78;;;;;;;;;;6129079;23;20197;-50
2022/06/26 15:05:44;;;;;;;2.58;2.35;;;;;;;;;;6129049;23;20182;-51
2022/06/26 15:08:15;;;;;;;4.45;2.60;;;;;;;;;;6129243;23;20229;-46
2022/06/26 15:10:42;;;;;;;5.45;2.80;;;;;;;;;;6129605;23;20193;-45
2022/06/26 15:13:09;;;;;;;2.90;2.30;;;;;;;;;;6128888;23;20174;-49